Time;durP1;ratioP1;P1;durP2;ratioP2;P2;SDS_P1;SDS_P2;PMS_P1;PMS_P2;Temp;Humidity;BMP_temperature;BMP_pressure;BME280_temperature;BME280_humidity;BME280_pressure;Samples;Min_cycle;Max_cycle;Signal;HPM_P1;HPM_P2
2022/12/03 00:00:33;;;;;;;63.83;31.70;;;;;;;0.90;96.14;101163.78;2767204;84;21029;-92
2022/12/03 00:04:36;;;;;;;49.08;30.52;;;;;;;0.86;95.70;101159.53;2692345;86;21069;-92
2022/12/03 00:08:37;;;;;;;54.08;30.27;;;;;;;0.85;95.63;101156.51;2685840;86;21060;-93
2022/12/03 00:12:39;;;;;;;52.85;31.73;;;;;;;0.94;95.89;101157.55;2681369;86;21072;-93
2022/12/03 00:16:40;;;;;;;58.48;35.65;;;;;;;0.94;95.37;101152.78;2670873;87;21077;-94
2022/12/03 00:20:41;;;;;;;56.15;32.90;;;;;;;0.93;95.18;101154.52;2671020;87;21127;-93
2022/12/03 00:24:42;;;;;;;55.92;32.55;;;;;;;0.94;95.79;101147.07;2676951;86;21136;-91
2022/12/03 00:28:43;;;;;;;61.83;34.27;;;;;;;0.89;95.55;101153.36;2687866;86;21079;-90
2022/12/03 00:32:44;;;;;;;52.35;33.58;;;;;;;0.92;96.09;101153.27;2656254;88;21106;-91
2022/12/03 00:36:45;;;;;;;59.33;30.02;;;;;;;0.89;95.91;101144.20;2763436;84;21006;-92
2022/12/03 00:40:46;;;;;;;61.63;33.92;;;;;;;0.83;95.64;101149.14;2742224;84;20967;-90
2022/12/03 00:44:47;;;;;;;53.13;31.55;;;;;;;0.82;95.87;101139.10;2742233;85;21062;-92
2022/12/03 00:48:48;;;;;;;60.92;34.50;;;;;;;0.84;96.57;101137.77;2706794;85;21106;-92
2022/12/03 00:52:49;;;;;;;54.03;31.57;;;;;;;0.81;96.30;101143.09;2734644;85;21017;-90
2022/12/03 00:56:51;;;;;;;67.47;33.33;;;;;;;0.88;96.81;101134.16;2740497;84;21029;-90
2022/12/03 01:00:52;;;;;;;54.40;30.43;;;;;;;0.86;97.07;101137.27;2744060;85;21117;-91
2022/12/03 01:04:53;;;;;;;54.80;34.27;;;;;;;0.86;98.95;101138.58;2740294;85;21061;-93
2022/12/03 01:08:54;;;;;;;60.50;33.95;;;;;;;0.86;99.78;101143.81;2740662;85;21010;-94
2022/12/03 01:12:55;;;;;;;60.67;33.88;;;;;;;0.86;100.00;101135.95;2740548;85;21069;-93
2022/12/03 01:16:56;;;;;;;65.87;38.65;;;;;;;0.84;100.00;101138.61;2690011;85;21633;-93
2022/12/03 01:20:57;;;;;;;57.85;33.23;;;;;;;0.84;100.00;101139.08;2740291;85;21665;-93
2022/12/03 01:24:58;;;;;;;57.98;32.78;;;;;;;0.86;100.00;101139.89;2655722;86;21122;-93
2022/12/03 01:28:59;;;;;;;50.78;30.00;;;;;;;0.87;100.00;101133.74;2630794;89;21147;-93
2022/12/03 01:33:00;;;;;;;45.00;27.90;;;;;;;0.90;100.00;101134.97;2658158;88;21060;-91
2022/12/03 01:37:02;;;;;;;68.57;33.23;;;;;;;0.90;100.00;101133.66;2655439;87;21006;-92
2022/12/03 01:41:03;;;;;;;41.95;26.68;;;;;;;0.91;100.00;101135.37;2656788;86;21120;-92
2022/12/03 01:45:06;;;;;;;61.28;33.63;;;;;;;0.93;100.00;101134.03;2668726;88;21077;-92
2022/12/03 01:49:21;;;;;;;47.90;29.20;;;;;;;0.85;100.00;101134.24;2662130;88;21053;-92
2022/12/03 01:53:23;;;;;;;55.50;30.55;;;;;;;0.84;100.00;101128.13;2646823;88;21763;-91
2022/12/03 01:57:29;;;;;;;56.85;30.10;;;;;;;0.90;99.79;101130.19;2659770;88;21041;-91
2022/12/03 02:01:30;;;;;;;54.25;31.45;;;;;;;0.91;99.73;101129.29;2649289;88;21041;-92
2022/12/03 02:05:32;;;;;;;63.95;33.98;;;;;;;0.93;99.84;101125.70;2648897;88;21104;-92
2022/12/03 02:09:33;;;;;;;59.40;34.40;;;;;;;0.93;99.24;101124.39;2655402;87;21568;-91
2022/12/03 02:13:35;;;;;;;50.43;31.15;;;;;;;0.94;98.91;101122.18;2648375;88;21021;-91
2022/12/03 02:17:38;;;;;;;64.12;32.48;;;;;;;0.93;98.81;101116.53;2669411;87;21611;-92
2022/12/03 02:22:06;;;;;;;53.45;31.23;;;;;;;0.91;98.90;101107.86;2648288;87;21591;-93
2022/12/03 02:26:07;;;;;;;51.83;31.50;;;;;;;0.90;99.06;101109.23;2660748;87;21076;-91
2022/12/03 02:30:12;;;;;;;60.75;35.03;;;;;;;0.92;99.05;101110.05;2702409;86;21039;-91
2022/12/03 02:34:34;;;;;;;53.43;31.57;;;;;;;0.95;99.17;101114.73;2762141;85;21057;-88
2022/12/03 02:38:35;;;;;;;58.17;31.12;;;;;;;0.94;99.11;101112.17;2754827;85;21148;-91
2022/12/03 02:42:36;;;;;;;55.63;29.85;;;;;;;0.98;98.88;101119.91;2765275;85;21100;-90
2022/12/03 02:46:38;;;;;;;61.35;32.48;;;;;;;0.98;99.00;101117.28;2763896;83;21023;-93
2022/12/03 02:50:43;;;;;;;57.35;29.87;;;;;;;1.03;98.97;101122.84;2660596;87;21083;-92
2022/12/03 02:54:45;;;;;;;55.35;34.95;;;;;;;1.01;98.55;101118.94;2698500;86;21134;-92
2022/12/03 02:58:49;;;;;;;61.40;36.48;;;;;;;1.01;98.55;101118.94;2769563;83;21038;-91
2022/12/03 03:02:50;;;;;;;66.62;34.80;;;;;;;1.03;98.29;101121.06;2760845;85;21072;-90
2022/12/03 03:06:52;;;;;;;61.75;32.15;;;;;;;1.03;98.08;101117.12;2767297;85;21030;-91
2022/12/03 03:10:54;;;;;;;69.15;34.90;;;;;;;1.02;98.05;101108.86;2769945;83;21038;-91
2022/12/03 03:14:56;;;;;;;55.40;30.88;;;;;;;1.03;98.10;101105.81;2755142;85;21045;-91
2022/12/03 03:18:57;;;;;;;56.83;34.60;;;;;;;1.06;98.29;101103.09;2755633;85;21091;-92
2022/12/03 03:23:15;;;;;;;59.15;32.08;;;;;;;1.09;98.16;101103.00;2761281;85;21045;-92
2022/12/03 03:27:16;;;;;;;54.77;33.58;;;;;;;1.10;98.13;101096.86;2760955;84;21007;-89
2022/12/03 03:31:20;;;;;;;56.42;35.73;;;;;;;1.07;98.13;101095.64;2741377;84;21018;-91
2022/12/03 03:35:24;;;;;;;58.68;35.73;;;;;;;1.08;98.32;101093.42;2739650;85;21140;-92
2022/12/03 03:39:25;;;;;;;63.08;37.20;;;;;;;1.06;98.08;101089.99;2743639;84;21046;-91
2022/12/03 03:43:28;;;;;;;62.30;36.13;;;;;;;1.07;98.26;101091.70;2745404;84;21084;-90
2022/12/03 03:47:29;;;;;;;62.23;36.30;;;;;;;1.12;98.21;101095.05;2739795;85;21100;-93
2022/12/03 03:51:33;;;;;;;57.75;34.35;;;;;;;1.08;98.22;101095.61;2739685;85;21077;-89
2022/12/03 03:55:34;;;;;;;64.42;34.05;;;;;;;1.11;98.45;101090.70;2739940;85;21084;-91
2022/12/03 03:59:36;;;;;;;59.08;32.80;;;;;;;1.12;98.20;101093.30;2767750;84;21081;-92
2022/12/03 04:03:37;;;;;;;60.48;33.38;;;;;;;1.16;98.23;101081.41;2739670;85;21069;-92
2022/12/03 04:07:38;;;;;;;71.30;36.83;;;;;;;1.21;98.37;101079.06;2759322;84;21054;-92
2022/12/03 04:15:59;;;;;;;59.73;30.65;;;;;;;1.16;98.01;101077.48;2755788;84;20979;-92
2022/12/03 04:20:00;;;;;;;57.62;31.55;;;;;;;1.19;98.00;101077.37;2755470;84;21066;-90
2022/12/03 04:24:03;;;;;;;48.68;31.45;;;;;;;1.21;98.23;101079.06;2740650;85;21112;-91
2022/12/03 04:36:43;;;;;;;56.00;28.92;;;;;;;1.32;98.05;101075.24;2738602;85;21113;-91
2022/12/03 04:40:59;;;;;;;54.42;32.17;;;;;;;1.28;97.34;101082.36;2756441;84;21065;-93
2022/12/03 04:45:00;;;;;;;55.85;33.23;;;;;;;1.32;97.89;101072.62;2741733;85;21050;-89
2022/12/03 04:49:02;;;;;;;65.00;35.33;;;;;;;1.28;98.15;101077.13;2740013;85;21463;-91
2022/12/03 04:53:03;;;;;;;60.65;34.58;;;;;;;1.21;98.37;101076.44;2746247;84;21120;-89
2022/12/03 04:57:05;;;;;;;58.35;31.27;;;;;;;1.24;98.48;101072.84;2740011;85;21070;-92
2022/12/03 05:01:07;;;;;;;60.75;32.80;;;;;;;1.18;98.71;101083.53;2765429;84;21047;-93
2022/12/03 05:05:09;;;;;;;64.97;34.23;;;;;;;1.20;98.78;101083.90;2744679;85;21306;-91
2022/12/03 05:09:11;;;;;;;57.58;34.88;;;;;;;1.16;99.19;101076.16;2739051;85;21026;-94
2022/12/03 05:13:12;;;;;;;69.07;37.78;;;;;;;1.20;98.85;101074.73;2762415;84;21549;-94
2022/12/03 05:17:13;;;;;;;67.37;33.90;;;;;;;1.21;98.76;101069.02;2738762;85;21671;-92
2022/12/03 05:21:15;;;;;;;63.68;33.30;;;;;;;1.28;98.85;101073.19;2738897;85;21065;-93
2022/12/03 05:25:16;;;;;;;59.40;32.33;;;;;;;1.30;98.39;101076.62;2749695;84;21609;-91
2022/12/03 05:29:17;;;;;;;62.58;33.35;;;;;;;1.28;98.08;101079.27;2747379;84;21015;-92
2022/12/03 05:33:19;;;;;;;60.75;37.00;;;;;;;1.33;97.96;101082.20;2692869;85;21066;-93
2022/12/03 05:37:20;;;;;;;61.35;35.98;;;;;;;1.33;97.82;101081.77;2741118;85;21085;-93
2022/12/03 05:45:43;;;;;;;66.57;38.23;;;;;;;1.33;97.64;101078.27;2747514;84;21085;-91
2022/12/03 05:49:44;;;;;;;58.90;34.85;;;;;;;1.34;97.59;101073.43;2754267;84;21037;-92
2022/12/03 05:53:45;;;;;;;59.42;31.70;;;;;;;1.36;97.93;101070.30;2744738;84;21235;-92
2022/12/03 05:57:47;;;;;;;67.62;36.08;;;;;;;1.35;97.65;101073.39;2755540;84;21070;-90
2022/12/03 06:01:48;;;;;;;64.45;35.95;;;;;;;1.39;97.63;101068.92;2758211;84;21085;-91
2022/12/03 06:05:49;;;;;;;65.10;37.33;;;;;;;1.43;97.76;101069.23;2764897;84;21140;-91
2022/12/03 06:09:50;;;;;;;68.00;33.63;;;;;;;1.43;97.54;101063.98;2741248;85;22254;-92
2022/12/03 06:13:51;;;;;;;57.73;32.05;;;;;;;1.49;97.05;101063.78;2738233;85;21593;-92
2022/12/03 06:17:52;;;;;;;63.73;30.25;;;;;;;1.52;97.21;101065.46;2746198;85;21066;-92
2022/12/03 06:21:54;;;;;;;68.75;39.30;;;;;;;1.48;96.70;101068.63;2761834;84;21097;-91
2022/12/03 06:25:55;;;;;;;58.90;34.38;;;;;;;1.40;96.23;101066.23;2740072;85;21064;-90
2022/12/03 06:29:56;;;;;;;72.10;35.35;;;;;;;1.40;96.62;101060.99;2739048;85;21046;-92
2022/12/03 06:33:57;;;;;;;63.87;39.10;;;;;;;1.41;96.20;101065.33;2739672;85;21062;-90
2022/12/03 06:37:59;;;;;;;64.70;31.62;;;;;;;1.36;95.87;101059.81;2738973;85;21049;-91
2022/12/03 06:42:00;;;;;;;61.95;35.45;;;;;;;1.41;96.40;101063.17;2756039;84;21119;-90
2022/12/03 06:46:01;;;;;;;55.28;32.75;;;;;;;1.39;96.37;101063.21;2732686;85;21076;-90
2022/12/03 06:50:03;;;;;;;65.30;36.85;;;;;;;1.39;96.63;101067.61;2718532;84;21034;-91
2022/12/03 06:54:15;;;;;;;65.47;35.38;;;;;;;1.46;96.76;101068.25;2741211;85;21145;-91
2022/12/03 06:58:18;;;;;;;54.05;35.83;;;;;;;1.39;96.55;101070.23;2747213;84;21053;-92
2022/12/03 07:02:19;;;;;;;58.68;36.93;;;;;;;1.36;96.80;101073.80;2762302;84;21121;-91
2022/12/03 07:06:21;;;;;;;61.28;35.13;;;;;;;1.38;97.06;101077.70;2739016;85;21026;-90
2022/12/03 07:10:22;;;;;;;51.95;32.75;;;;;;;1.37;96.91;101077.27;2771493;84;21014;-93
2022/12/03 07:14:23;;;;;;;58.80;37.03;;;;;;;1.40;96.74;101072.79;2774764;84;21054;-95
2022/12/03 07:18:24;;;;;;;64.62;37.23;;;;;;;1.41;96.92;101069.73;2763628;84;21466;-88
2022/12/03 07:22:25;;;;;;;68.00;35.58;;;;;;;1.41;96.73;101060.08;2745980;84;21950;-89
2022/12/03 07:26:26;;;;;;;56.63;33.55;;;;;;;1.41;96.53;101057.94;2706059;85;21564;-90
2022/12/03 07:30:28;;;;;;;70.57;36.35;;;;;;;1.46;96.69;101055.14;2741242;85;21624;-89
2022/12/03 07:34:29;;;;;;;64.77;38.02;;;;;;;1.39;96.73;101054.50;2682895;84;21070;-89
2022/12/03 07:38:30;;;;;;;63.55;37.38;;;;;;;1.33;97.21;101054.23;2742364;85;21026;-88
2022/12/03 07:42:31;;;;;;;71.45;35.90;;;;;;;1.33;97.67;101052.05;2739849;85;21065;-89
2022/12/03 07:46:32;;;;;;;64.72;36.73;;;;;;;1.40;97.74;101056.22;2747767;85;21105;-89
2022/12/03 07:50:33;;;;;;;69.85;38.73;;;;;;;1.41;97.26;101056.63;2656347;86;21131;-89
2022/12/03 07:54:35;;;;;;;65.40;35.23;;;;;;;1.40;97.05;101047.88;2743292;85;21018;-89
2022/12/03 07:58:36;;;;;;;62.70;40.63;;;;;;;1.42;97.17;101053.09;2743559;85;21184;-88
2022/12/03 08:02:37;;;;;;;64.03;34.10;;;;;;;1.48;97.04;101054.67;2745556;84;21018;-89
2022/12/03 08:06:38;;;;;;;66.65;36.50;;;;;;;1.53;97.06;101054.91;2733033;84;21050;-90
2022/12/03 08:10:39;;;;;;;65.70;32.88;;;;;;;1.57;96.77;101053.05;2740121;82;21085;-91
2022/12/03 08:14:40;;;;;;;62.00;37.20;;;;;;;1.61;96.18;101048.58;2733291;85;21053;-89
2022/12/03 08:18:42;;;;;;;70.47;36.58;;;;;;;1.67;95.93;101048.37;2726257;85;21049;-89
2022/12/03 08:22:46;;;;;;;74.05;38.42;;;;;;;1.71;95.28;101053.47;2743165;84;21331;-89
2022/12/03 08:26:48;;;;;;;65.05;35.40;;;;;;;1.69;94.94;101029.06;2732205;85;21056;-88
2022/12/03 08:31:17;;;;;;;68.35;38.23;;;;;;;1.72;94.79;101024.15;2725337;85;21018;-88
2022/12/03 08:35:27;;;;;;;61.75;36.75;;;;;;;1.76;95.48;101013.95;2741871;85;21022;-89
2022/12/03 08:39:36;;;;;;;66.75;36.28;;;;;;;1.76;95.37;101026.23;2741063;85;21960;-86
2022/12/03 08:43:42;;;;;;;75.37;35.95;;;;;;;1.79;95.46;101032.23;2736463;85;21018;-89
2022/12/03 08:47:40;;;;;;;64.47;35.60;;;;;;;1.79;95.38;101030.92;2742047;85;21034;-88
2022/12/03 08:51:42;;;;;;;61.10;38.20;;;;;;;1.78;95.23;101025.72;2733900;85;20990;-88
2022/12/03 08:55:54;;;;;;;75.32;40.75;;;;;;;1.78;95.21;101027.91;2743189;85;21681;-89
2022/12/03 09:00:00;;;;;;;105.17;58.90;;;;;;;1.79;95.45;101020.44;2737923;85;21050;-88
2022/12/03 09:04:29;;;;;;;104.15;61.35;;;;;;;1.77;95.25;101027.50;2724743;82;21035;-89
2022/12/03 09:08:30;;;;;;;75.42;38.73;;;;;;;1.81;95.36;101029.11;2736718;85;21025;-91
2022/12/03 09:12:31;;;;;;;73.35;43.45;;;;;;;1.87;95.30;101031.98;2728818;85;21019;-88
2022/12/03 09:16:32;;;;;;;66.25;38.98;;;;;;;1.89;95.05;101031.91;2735249;85;21101;-89
2022/12/03 09:20:35;;;;;;;69.55;41.63;;;;;;;1.95;95.20;101033.88;2722624;85;21107;-89
2022/12/03 09:24:36;;;;;;;70.55;40.23;;;;;;;1.97;94.66;101039.09;2724733;85;21611;-90
2022/12/03 09:28:38;;;;;;;79.40;42.03;;;;;;;2.01;94.49;101035.45;2710527;84;21307;-89
2022/12/03 09:32:39;;;;;;;79.55;41.33;;;;;;;2.07;94.75;101042.27;2729108;85;21047;-89
2022/12/03 09:36:40;;;;;;;83.00;48.75;;;;;;;2.09;94.56;101033.41;2623614;86;21030;-90
2022/12/03 09:40:41;;;;;;;110.97;65.12;;;;;;;2.19;94.11;101026.07;2664212;86;21103;-90
2022/12/03 09:44:43;;;;;;;82.00;44.63;;;;;;;2.16;93.59;101015.68;2720660;85;21101;-89
2022/12/03 09:48:44;;;;;;;88.65;51.25;;;;;;;2.21;93.85;101020.78;2723919;85;21062;-89
2022/12/03 09:52:48;;;;;;;114.25;54.50;;;;;;;2.09;95.20;101021.59;2722657;85;21054;-89
2022/12/03 09:56:50;;;;;;;78.57;48.08;;;;;;;2.18;94.84;101016.48;2721968;85;21090;-88
2022/12/03 10:00:52;;;;;;;89.13;45.85;;;;;;;2.24;94.21;101015.41;2750483;84;21006;-88
2022/12/03 10:04:55;;;;;;;72.90;43.92;;;;;;;2.16;94.08;101010.88;2742080;85;21557;-87
2022/12/03 10:08:58;;;;;;;73.33;40.65;;;;;;;2.19;94.18;101012.11;2743560;85;21063;-87
2022/12/03 10:13:00;;;;;;;75.83;41.45;;;;;;;2.12;94.37;101003.58;2738235;84;21090;-88
2022/12/03 10:34:54;;;;;;;80.35;42.15;;;;;;;2.06;95.20;100990.21;2809811;82;21129;-87
2022/12/03 10:39:10;;;;;;;85.05;45.95;;;;;;;2.14;95.25;100990.78;2838165;82;21561;-89
2022/12/03 10:43:21;;;;;;;80.35;45.73;;;;;;;2.16;95.20;100980.24;2838036;82;21054;-90
2022/12/03 10:47:24;;;;;;;76.85;45.25;;;;;;;2.14;95.67;100983.38;2796083;82;21019;-93
2022/12/03 10:51:25;;;;;;;77.27;50.40;;;;;;;2.19;95.08;100975.35;2836124;82;21613;-95
2022/12/03 10:55:32;;;;;;;93.27;52.70;;;;;;;2.17;95.19;100968.83;2844833;82;22150;-91
2022/12/03 10:59:35;;;;;;;107.37;64.77;;;;;;;2.16;96.48;100967.56;2833198;82;21075;-92
2022/12/03 11:03:37;;;;;;;78.35;46.92;;;;;;;2.20;96.28;100957.38;2834820;82;21407;-89
2022/12/03 11:07:39;;;;;;;86.25;49.93;;;;;;;2.23;95.38;100963.35;2836637;82;21074;-89
2022/12/03 11:11:40;;;;;;;84.75;49.50;;;;;;;2.29;94.72;100957.03;2838909;82;21485;-89
2022/12/03 11:15:44;;;;;;;87.08;50.05;;;;;;;2.37;94.57;100963.31;2810437;82;21064;-89
2022/12/03 11:20:03;;;;;;;90.42;47.98;;;;;;;2.42;94.97;100959.61;2832921;82;21094;-87
2022/12/03 11:24:18;;;;;;;86.50;51.58;;;;;;;2.48;94.94;100961.16;2834070;82;21427;-89
2022/12/03 11:28:35;;;;;;;84.30;48.23;;;;;;;2.51;94.73;100957.55;2834306;83;21554;-90
2022/12/03 11:32:47;;;;;;;86.85;49.65;;;;;;;2.46;94.54;100964.30;2805091;84;21640;-90
2022/12/03 11:37:12;;;;;;;87.47;48.98;;;;;;;2.46;94.31;100951.62;2803338;83;21659;-90
2022/12/03 11:41:31;;;;;;;95.72;52.08;;;;;;;2.52;94.25;100949.63;2818078;83;21010;-88
2022/12/03 11:45:38;;;;;;;87.70;49.05;;;;;;;2.52;94.51;100947.44;2803613;83;21537;-91
2022/12/03 11:49:47;;;;;;;84.07;48.00;;;;;;;2.46;94.20;100945.92;2777972;84;20995;-90
2022/12/03 11:53:52;;;;;;;77.27;43.15;;;;;;;2.50;95.06;100946.64;2730768;85;21067;-90
2022/12/03 11:58:04;;;;;;;85.92;52.38;;;;;;;2.48;94.94;100944.53;2741091;85;21035;-92
2022/12/03 12:02:28;;;;;;;85.57;45.30;;;;;;;2.53;94.70;100943.89;2666976;86;21130;-92
2022/12/03 12:10:57;;;;;;;85.92;49.40;;;;;;;2.63;94.79;100949.21;2742719;84;21069;-91
2022/12/03 12:14:59;;;;;;;77.17;43.02;;;;;;;2.62;94.87;100944.88;2732896;85;21179;-91
2022/12/03 12:19:40;;;;;;;80.83;52.60;;;;;;;2.59;94.85;100941.50;2701663;86;21564;-92
2022/12/03 12:23:41;;;;;;;86.35;51.37;;;;;;;2.62;95.78;100934.37;2736959;84;21047;-91
2022/12/03 12:27:46;;;;;;;88.42;51.80;;;;;;;2.69;94.85;100933.20;2798538;83;21030;-94
2022/12/03 12:31:48;;;;;;;76.77;46.02;;;;;;;2.68;95.09;100920.98;2788252;83;21070;-89
2022/12/03 12:35:50;;;;;;;91.65;51.53;;;;;;;2.66;95.23;100908.37;2755265;83;21592;-92
2022/12/03 12:39:55;;;;;;;84.52;51.92;;;;;;;2.70;94.38;100910.44;2825215;82;21022;-91
2022/12/03 12:43:56;;;;;;;84.97;53.75;;;;;;;2.68;94.04;100904.39;2839645;82;21031;-92
2022/12/03 12:48:14;;;;;;;91.55;55.45;;;;;;;2.67;94.91;100914.02;2778771;84;21050;-91
2022/12/03 12:52:16;;;;;;;85.05;51.42;;;;;;;2.61;95.22;100911.64;2811455;83;21553;-88
2022/12/03 12:56:30;;;;;;;86.55;52.65;;;;;;;2.66;95.42;100921.51;2816616;83;21033;-91
2022/12/03 13:00:31;;;;;;;90.95;54.90;;;;;;;2.68;95.41;100913.11;2806592;83;21062;-89
2022/12/03 13:04:38;;;;;;;99.25;55.78;;;;;;;2.75;95.49;100909.79;2777047;83;21014;-88
2022/12/03 13:08:41;;;;;;;97.60;56.13;;;;;;;2.76;95.98;100911.97;2746523;85;21130;-89
2022/12/03 13:12:43;;;;;;;82.63;50.90;;;;;;;2.76;96.02;100900.15;2821578;82;21048;-90
2022/12/03 13:16:48;;;;;;;80.00;51.10;;;;;;;2.79;95.28;100896.92;2807063;83;21434;-91
2022/12/03 13:20:50;;;;;;;107.32;56.20;;;;;;;2.83;95.73;100898.98;2773769;83;21049;-91
2022/12/03 13:24:54;;;;;;;91.12;52.43;;;;;;;2.80;95.75;100893.85;2849316;82;20966;-92
2022/12/03 13:28:56;;;;;;;120.72;70.65;;;;;;;2.85;95.56;100898.45;2784265;83;21043;-90
2022/12/03 13:32:57;;;;;;;113.10;64.17;;;;;;;2.87;95.61;100908.45;2820537;83;20991;-93
2022/12/03 13:37:01;;;;;;;95.85;57.05;;;;;;;2.84;95.50;100908.57;2793214;83;21030;-93
2022/12/03 13:41:02;;;;;;;104.32;60.67;;;;;;;2.92;95.52;100923.56;2792506;83;21037;-89
2022/12/03 13:45:23;;;;;;;94.75;54.33;;;;;;;2.93;95.65;100913.45;2793842;83;21010;-87
2022/12/03 13:49:24;;;;;;;103.95;59.80;;;;;;;2.92;95.57;100905.64;2793790;83;21070;-89
2022/12/03 13:53:36;;;;;;;90.35;55.70;;;;;;;2.99;95.75;100896.58;2785367;83;21105;-88
2022/12/03 13:57:38;;;;;;;88.42;52.00;;;;;;;2.95;95.52;100898.50;2754638;83;21526;-93
2022/12/03 14:01:39;;;;;;;103.67;58.80;;;;;;;2.95;95.62;100899.81;2799849;83;20999;-94
2022/12/03 14:05:40;;;;;;;79.22;49.73;;;;;;;2.97;96.08;100915.06;2798411;83;21511;-91
2022/12/03 14:09:41;;;;;;;97.05;55.98;;;;;;;3.04;95.86;100913.48;2799806;83;21050;-91
2022/12/03 14:13:43;;;;;;;92.47;53.60;;;;;;;3.01;95.86;100892.11;2800608;83;20951;-90
2022/12/03 14:17:44;;;;;;;85.17;54.65;;;;;;;3.02;96.09;100894.30;2758890;83;21015;-90
2022/12/03 14:21:46;;;;;;;89.35;50.67;;;;;;;3.05;96.15;100899.42;2762825;83;21446;-91
2022/12/03 14:25:47;;;;;;;92.70;56.48;;;;;;;3.07;96.24;100901.53;2766586;84;20998;-91
2022/12/03 14:29:49;;;;;;;86.47;49.10;;;;;;;3.13;96.09;100894.70;2784683;84;21589;-90
2022/12/03 14:33:50;;;;;;;90.22;53.70;;;;;;;3.13;96.23;100894.25;2807178;83;21543;-88
2022/12/03 14:37:51;;;;;;;90.00;54.53;;;;;;;3.14;96.21;100885.89;2816457;83;21561;-90
2022/12/03 14:46:12;;;;;;;87.25;59.27;;;;;;;3.16;96.30;100898.55;2762664;84;21542;-89
2022/12/03 14:50:14;;;;;;;91.57;54.25;;;;;;;3.13;96.47;100898.20;2733429;84;21038;-92
2022/12/03 14:54:15;;;;;;;94.87;54.77;;;;;;;3.10;96.89;100902.72;2805022;83;20983;-92
2022/12/03 14:58:16;;;;;;;103.53;59.85;;;;;;;3.11;97.07;100896.09;2810412;83;21034;-89
2022/12/03 15:02:18;;;;;;;96.15;52.03;;;;;;;3.13;96.93;100892.07;2808560;83;21014;-90
2022/12/03 15:06:19;;;;;;;107.10;58.25;;;;;;;3.14;97.02;100888.08;2802863;82;21724;-89
2022/12/03 15:10:20;;;;;;;95.70;55.63;;;;;;;3.16;97.13;100885.84;2798816;83;21030;-90
2022/12/03 15:14:22;;;;;;;94.13;55.90;;;;;;;3.12;97.27;100885.97;2775347;83;21058;-91
2022/12/03 15:18:23;;;;;;;94.80;59.25;;;;;;;3.10;97.51;100887.81;2780720;83;21066;-91
2022/12/03 15:22:24;;;;;;;92.62;54.08;;;;;;;3.13;97.54;100891.63;2778688;84;21483;-87
2022/12/03 15:26:26;;;;;;;94.95;58.65;;;;;;;3.17;97.53;100899.38;2784295;83;21002;-89
2022/12/03 15:30:27;;;;;;;104.30;59.05;;;;;;;3.17;97.54;100897.63;2787469;83;21021;-90
2022/12/03 15:34:29;;;;;;;101.95;60.25;;;;;;;3.23;97.78;100896.05;2778761;84;21527;-89
2022/12/03 15:38:30;;;;;;;84.83;55.75;;;;;;;3.29;97.57;100896.26;2771321;83;20999;-88
2022/12/03 15:42:31;;;;;;;90.30;54.33;;;;;;;3.35;97.41;100892.52;2800893;83;21010;-89
2022/12/03 15:46:33;;;;;;;118.60;66.00;;;;;;;3.42;97.08;100899.23;2765943;84;21077;-91
2022/12/03 15:50:34;;;;;;;100.20;59.80;;;;;;;3.42;97.06;100885.59;2707174;86;21056;-90
2022/12/03 15:54:35;;;;;;;97.02;57.45;;;;;;;3.40;97.38;100883.97;2817706;83;21001;-90
2022/12/03 15:58:37;;;;;;;104.17;62.58;;;;;;;3.34;97.53;100884.20;2800852;83;20951;-90
2022/12/03 16:02:40;;;;;;;94.77;58.20;;;;;;;3.36;97.87;100887.66;2812830;84;21615;-90
2022/12/03 16:06:41;;;;;;;107.05;60.45;;;;;;;3.36;98.21;100890.29;2761377;84;21066;-91
2022/12/03 16:10:42;;;;;;;112.92;71.90;;;;;;;3.27;98.71;100873.95;2817736;83;21031;-90
2022/12/03 16:14:44;;;;;;;104.60;56.77;;;;;;;3.33;98.70;100885.13;2813565;82;24198;-88
2022/12/03 16:18:45;;;;;;;94.92;60.67;;;;;;;3.39;98.65;100880.47;2818184;82;21077;-85
2022/12/03 16:22:47;;;;;;;99.52;62.60;;;;;;;3.40;98.27;100885.29;2824181;83;21020;-86
2022/12/03 16:26:48;;;;;;;90.83;56.33;;;;;;;3.41;98.23;100878.63;2822965;83;21013;-88
2022/12/03 16:30:49;;;;;;;96.87;60.83;;;;;;;3.37;98.15;100876.22;2817826;83;21524;-87
2022/12/03 16:34:50;;;;;;;92.62;57.10;;;;;;;3.34;98.58;100881.58;2770206;85;21062;-87
2022/12/03 16:38:51;;;;;;;97.17;56.25;;;;;;;3.34;98.86;100877.63;2817870;82;21034;-88
2022/12/03 16:42:52;;;;;;;104.67;62.13;;;;;;;3.36;98.91;100870.56;2837555;82;21008;-88
2022/12/03 16:46:54;;;;;;;91.37;56.83;;;;;;;3.34;99.06;100865.80;2840115;82;20972;-86
2022/12/03 16:50:55;;;;;;;94.13;58.73;;;;;;;3.39;98.94;100874.37;2812967;82;21523;-86
2022/12/03 16:54:56;;;;;;;90.72;56.60;;;;;;;3.38;98.84;100868.72;2838290;82;20989;-89
2022/12/03 16:58:58;;;;;;;91.32;53.28;;;;;;;3.38;98.70;100871.35;2858189;82;21031;-89
2022/12/03 17:02:59;;;;;;;84.40;51.37;;;;;;;3.42;98.67;100873.77;2823572;82;21002;-85
2022/12/03 17:07:01;;;;;;;96.05;55.70;;;;;;;3.46;98.48;100870.55;2769821;82;21479;-84
2022/12/03 17:11:02;;;;;;;90.05;56.90;;;;;;;3.40;98.60;100869.51;2832189;82;20994;-86
2022/12/03 17:15:05;;;;;;;92.78;55.03;;;;;;;3.41;98.61;100865.95;2807597;82;21059;-86
2022/12/03 17:19:06;;;;;;;88.60;55.92;;;;;;;3.46;98.56;100863.14;2839680;82;21078;-86
2022/12/03 17:23:07;;;;;;;80.38;51.40;;;;;;;3.46;98.46;100860.03;2745770;84;20973;-86
2022/12/03 17:27:10;;;;;;;96.90;51.65;;;;;;;3.43;98.37;100854.91;2835030;82;21633;-86
2022/12/03 17:31:12;;;;;;;86.47;54.35;;;;;;;3.45;98.26;100858.80;2806958;82;21593;-86
2022/12/03 17:35:13;;;;;;;88.27;49.08;;;;;;;3.40;98.37;100847.16;2800397;83;21168;-85
2022/12/03 17:39:14;;;;;;;84.42;50.52;;;;;;;3.36;98.40;100852.16;2822813;83;21096;-86
2022/12/03 17:43:16;;;;;;;90.62;52.88;;;;;;;3.36;98.54;100842.47;2827542;82;21026;-88
2022/12/03 17:47:17;;;;;;;78.97;49.77;;;;;;;3.37;98.63;100849.44;2835571;82;21545;-87
2022/12/03 17:51:19;;;;;;;88.87;50.98;;;;;;;3.40;98.45;100848.47;2821322;82;21026;-87
2022/12/03 17:55:21;;;;;;;89.77;50.43;;;;;;;3.38;98.52;100849.84;2838477;83;21073;-87
2022/12/03 17:59:22;;;;;;;76.95;49.75;;;;;;;3.41;98.52;100846.23;2790735;83;21680;-88
2022/12/03 18:03:23;;;;;;;79.72;53.83;;;;;;;3.41;98.49;100843.13;2765913;84;21423;-88
2022/12/03 18:07:24;;;;;;;77.08;47.17;;;;;;;3.43;97.98;100849.64;2838613;82;21046;-87
2022/12/03 18:11:26;;;;;;;84.77;50.33;;;;;;;3.42;97.92;100845.31;2772197;83;21494;-87
2022/12/03 18:15:27;;;;;;;86.00;50.65;;;;;;;3.40;97.59;100844.52;2812505;83;21038;-87
2022/12/03 18:19:28;;;;;;;85.28;53.98;;;;;;;3.45;97.42;100843.86;2823522;83;21498;-88
2022/12/03 18:23:31;;;;;;;82.33;50.88;;;;;;;3.48;97.21;100842.41;2830874;82;21058;-87
2022/12/03 18:27:33;;;;;;;130.30;85.53;;;;;;;3.57;96.84;100849.91;2764397;82;21082;-87
2022/12/03 18:31:34;;;;;;;218.27;127.87;;;;;;;3.60;96.68;100844.12;2823866;82;20998;-91
2022/12/03 18:35:36;;;;;;;313.07;185.00;;;;;;;3.63;96.61;100837.41;2736635;85;21082;-87
2022/12/03 18:39:39;;;;;;;125.65;69.27;;;;;;;3.71;96.35;100836.59;2780575;84;21696;-87
2022/12/03 18:43:41;;;;;;;163.70;84.67;;;;;;;3.74;96.05;100833.84;2752149;84;21097;-88
2022/12/03 18:47:45;;;;;;;154.12;86.78;;;;;;;3.77;96.17;100827.13;2731138;87;21070;-88
2022/12/03 18:51:46;;;;;;;118.00;71.12;;;;;;;3.80;96.05;100826.11;2736408;85;21028;-88
2022/12/03 18:55:50;;;;;;;109.70;66.10;;;;;;;3.83;95.93;100830.79;2642405;88;21082;-88
2022/12/03 18:59:51;;;;;;;107.92;62.00;;;;;;;3.89;96.01;100836.25;2791158;83;21082;-88
2022/12/03 19:03:53;;;;;;;105.45;64.90;;;;;;;3.93;95.55;100832.99;2764469;84;21090;-87
2022/12/03 19:07:55;;;;;;;87.37;54.90;;;;;;;3.91;95.31;100830.89;2788947;84;21062;-87
2022/12/03 19:11:56;;;;;;;101.33;57.83;;;;;;;3.92;95.37;100833.47;2779737;84;21579;-88
2022/12/03 19:16:04;;;;;;;102.53;60.48;;;;;;;3.91;95.24;100834.39;2762030;84;21058;-87
2022/12/03 19:20:10;;;;;;;93.35;57.75;;;;;;;3.91;95.33;100833.08;2759978;84;21629;-88